sensor_id;sensor_type;location;lat;lon;timestamp;pressure;altitude;pressure_sealevel;temperature;humidity
63819;BME280;49970;54.976;73.248;2024-02-28T00:41:52;102021.91;;;-5.08;95.08
63819;BME280;49970;54.976;73.248;2024-02-28T00:44:18;102025.38;;;-5.06;94.17
63819;BME280;49970;54.976;73.248;2024-02-28T00:46:45;102022.00;;;-5.04;95.40
63819;BME280;49970;54.976;73.248;2024-02-28T00:49:11;102027.16;;;-5.04;94.74
63819;BME280;49970;54.976;73.248;2024-02-28T00:51:37;102027.25;;;-4.99;94.72
63819;BME280;49970;54.976;73.248;2024-02-28T00:54:04;102028.13;;;-4.98;94.68
63819;BME280;49970;54.976;73.248;2024-02-28T00:56:30;102024.69;;;-4.97;95.38
63819;BME280;49970;54.976;73.248;2024-02-28T00:59:16;102022.16;;;-4.96;95.64
63819;BME280;49970;54.976;73.248;2024-02-28T01:03:12;102030.78;;;-4.94;95.74
63819;BME280;49970;54.976;73.248;2024-02-28T01:07:09;102016.16;;;-4.93;95.47
63819;BME280;49970;54.976;73.248;2024-02-28T01:11:05;102010.16;;;-4.92;95.55
63819;BME280;49970;54.976;73.248;2024-02-28T01:15:01;102004.16;;;-4.90;95.24
63819;BME280;49970;54.976;73.248;2024-02-28T01:18:34;102009.38;;;-4.88;95.58
63819;BME280;49970;54.976;73.248;2024-02-28T01:22:30;102007.63;;;-4.89;95.46
63819;BME280;49970;54.976;73.248;2024-02-28T01:26:27;102000.69;;;-4.92;95.23
63819;BME280;49970;54.976;73.248;2024-02-28T01:30:24;101994.53;;;-4.98;95.19
63819;BME280;49970;54.976;73.248;2024-02-28T01:33:56;102003.09;;;-5.01;95.28
63819;BME280;49970;54.976;73.248;2024-02-28T01:37:28;102004.75;;;-5.05;95.44
63819;BME280;49970;54.976;73.248;2024-02-28T01:41:04;101993.50;;;-5.07;95.24
63819;BME280;49970;54.976;73.248;2024-02-28T01:44:41;101986.59;;;-5.08;94.63
63819;BME280;49970;54.976;73.248;2024-02-28T01:48:09;101996.94;;;-5.08;95.18
63819;BME280;49970;54.976;73.248;2024-02-28T01:51:44;101997.78;;;-5.09;95.20
63819;BME280;49970;54.976;73.248;2024-02-28T01:55:14;101989.09;;;-5.12;95.45
63819;BME280;49970;54.976;73.248;2024-02-28T01:58:46;101985.56;;;-5.16;94.67
63819;BME280;49970;54.976;73.248;2024-02-28T02:02:16;101999.25;;;-5.21;94.83
63819;BME280;49970;54.976;73.248;2024-02-28T02:05:48;101987.06;;;-5.27;94.26
63819;BME280;49970;54.976;73.248;2024-02-28T02:09:18;101990.38;;;-5.33;94.43
63819;BME280;49970;54.976;73.248;2024-02-28T02:12:31;101997.19;;;-5.38;94.17
63819;BME280;49970;54.976;73.248;2024-02-28T02:15:03;102006.63;;;-5.38;94.19
63819;BME280;49970;54.976;73.248;2024-02-28T02:17:34;102002.25;;;-5.42;94.42
63819;BME280;49970;54.976;73.248;2024-02-28T02:20:09;102003.06;;;-5.43;94.28
63819;BME280;49970;54.976;73.248;2024-02-28T02:22:38;102010.88;;;-5.42;94.20
63819;BME280;49970;54.976;73.248;2024-02-28T02:25:10;102010.00;;;-5.42;94.09
63819;BME280;49970;54.976;73.248;2024-02-28T02:27:43;102012.59;;;-5.41;94.26
63819;BME280;49970;54.976;73.248;2024-02-28T02:30:13;102012.63;;;-5.39;94.17
63819;BME280;49970;54.976;73.248;2024-02-28T02:32:45;102010.94;;;-5.39;94.18
63819;BME280;49970;54.976;73.248;2024-02-28T02:35:16;102010.03;;;-5.39;94.17
63819;BME280;49970;54.976;73.248;2024-02-28T02:37:47;102010.03;;;-5.39;93.92
63819;BME280;49970;54.976;73.248;2024-02-28T02:48:38;102008.03;;;-5.53;93.66
63819;BME280;49970;54.976;73.248;2024-02-28T02:52:09;102012.22;;;-5.58;93.45
63819;BME280;49970;54.976;73.248;2024-02-28T02:55:46;102004.41;;;-5.61;93.27
63819;BME280;49970;54.976;73.248;2024-02-28T02:59:17;101988.88;;;-5.64;93.56
63819;BME280;49970;54.976;73.248;2024-02-28T03:02:52;101990.53;;;-5.66;93.23
63819;BME280;49970;54.976;73.248;2024-02-28T03:05:19;101993.13;;;-5.66;93.65
63819;BME280;49970;54.976;73.248;2024-02-28T03:07:47;101989.69;;;-5.65;92.88
63819;BME280;49970;54.976;73.248;2024-02-28T03:10:13;101988.03;;;-5.63;93.33
63819;BME280;49970;54.976;73.248;2024-02-28T03:12:39;101995.78;;;-5.61;93.35
63819;BME280;49970;54.976;73.248;2024-02-28T03:15:07;101986.41;;;-5.59;93.11
63819;BME280;49970;54.976;73.248;2024-02-28T03:17:33;101975.25;;;-5.57;93.28
63819;BME280;49970;54.976;73.248;2024-02-28T03:20:00;101983.97;;;-5.52;93.50
63819;BME280;49970;54.976;73.248;2024-02-28T03:22:26;101975.47;;;-5.47;93.30
63819;BME280;49970;54.976;73.248;2024-02-28T03:24:52;101976.44;;;-5.41;93.45
63819;BME280;49970;54.976;73.248;2024-02-28T03:27:19;101980.84;;;-5.37;93.09
63819;BME280;49970;54.976;73.248;2024-02-28T03:29:45;101974.91;;;-5.33;93.37
63819;BME280;49970;54.976;73.248;2024-02-28T03:32:11;101978.34;;;-5.32;93.33
63819;BME280;49970;54.976;73.248;2024-02-28T03:34:39;101971.69;;;-5.22;93.06
63819;BME280;49970;54.976;73.248;2024-02-28T03:37:05;101977.81;;;-5.17;92.61
63819;BME280;49970;54.976;73.248;2024-02-28T03:39:31;101981.34;;;-5.12;92.29
63819;BME280;49970;54.976;73.248;2024-02-28T03:41:58;101975.47;;;-5.05;92.49
63819;BME280;49970;54.976;73.248;2024-02-28T03:44:24;101972.97;;;-4.99;92.74
63819;BME280;49970;54.976;73.248;2024-02-28T03:46:51;101968.81;;;-4.92;93.04
63819;BME280;49970;54.976;73.248;2024-02-28T03:49:38;101968.97;;;-4.85;92.04
63819;BME280;49970;54.976;73.248;2024-02-28T03:53:11;101960.50;;;-4.76;91.77
63819;BME280;49970;54.976;73.248;2024-02-28T03:56:43;101960.63;;;-4.68;92.20
63819;BME280;49970;54.976;73.248;2024-02-28T04:00:15;101963.41;;;-4.58;91.46
63819;BME280;49970;54.976;73.248;2024-02-28T04:03:51;101953.13;;;-4.53;91.49
63819;BME280;49970;54.976;73.248;2024-02-28T04:07:22;101952.34;;;-4.49;91.35
63819;BME280;49970;54.976;73.248;2024-02-28T04:10:03;101951.47;;;-4.49;91.15
63819;BME280;49970;54.976;73.248;2024-02-28T04:12:31;101956.78;;;-4.42;91.50
63819;BME280;49970;54.976;73.248;2024-02-28T04:14:57;101961.19;;;-4.36;90.45
63819;BME280;49970;54.976;73.248;2024-02-28T04:17:24;101952.63;;;-4.31;90.58
63819;BME280;49970;54.976;73.248;2024-02-28T04:19:50;101957.91;;;-4.26;90.25
63819;BME280;49970;54.976;73.248;2024-02-28T04:22:16;101948.44;;;-4.24;90.08
63819;BME280;49970;54.976;73.248;2024-02-28T04:24:43;101958.91;;;-4.18;89.96
63819;BME280;49970;54.976;73.248;2024-02-28T04:27:09;101952.94;;;-4.14;90.14
63819;BME280;49970;54.976;73.248;2024-02-28T04:29:38;101940.88;;;-4.12;89.81
63819;BME280;49970;54.976;73.248;2024-02-28T04:32:04;101946.09;;;-4.09;89.59
63819;BME280;49970;54.976;73.248;2024-02-28T04:34:31;101941.88;;;-4.04;89.55
63819;BME280;49970;54.976;73.248;2024-02-28T04:36:57;101939.34;;;-3.97;89.68
63819;BME280;49970;54.976;73.248;2024-02-28T04:39:23;101943.78;;;-3.89;89.35
63819;BME280;49970;54.976;73.248;2024-02-28T04:41:50;101932.63;;;-3.86;89.49
63819;BME280;49970;54.976;73.248;2024-02-28T04:44:16;101945.69;;;-3.77;89.18
63819;BME280;49970;54.976;73.248;2024-02-28T04:46:42;101950.09;;;-3.71;88.81
63819;BME280;49970;54.976;73.248;2024-02-28T04:49:09;101940.59;;;-3.71;88.28
63819;BME280;49970;54.976;73.248;2024-02-28T04:51:35;101941.47;;;-3.69;87.82
63819;BME280;49970;54.976;73.248;2024-02-28T04:54:02;101927.56;;;-3.77;88.42
63819;BME280;49970;54.976;73.248;2024-02-28T04:56:28;101944.06;;;-3.72;87.83
63819;BME280;49970;54.976;73.248;2024-02-28T04:58:55;101950.91;;;-3.72;87.58
63819;BME280;49970;54.976;73.248;2024-02-28T05:01:21;101953.50;;;-3.76;87.75
63819;BME280;49970;54.976;73.248;2024-02-28T05:03:48;101939.63;;;-3.79;87.53
63819;BME280;49970;54.976;73.248;2024-02-28T05:06:15;101940.50;;;-3.80;87.72
63819;BME280;49970;54.976;73.248;2024-02-28T05:08:41;101941.28;;;-3.84;87.20
63819;BME280;49970;54.976;73.248;2024-02-28T05:11:07;101942.91;;;-3.89;87.21
63819;BME280;49970;54.976;73.248;2024-02-28T05:13:35;101944.63;;;-3.93;86.96
63819;BME280;49970;54.976;73.248;2024-02-28T05:16:01;101934.28;;;-3.93;87.10
63819;BME280;49970;54.976;73.248;2024-02-28T05:18:28;101939.47;;;-3.90;86.80
63819;BME280;49970;54.976;73.248;2024-02-28T05:20:54;101943.88;;;-3.84;87.31
63819;BME280;49970;54.976;73.248;2024-02-28T05:23:20;101943.94;;;-3.78;87.06
63819;BME280;49970;54.976;73.248;2024-02-28T05:25:47;101943.97;;;-3.77;86.29
63819;BME280;49970;54.976;73.248;2024-02-28T05:28:14;101938.88;;;-3.72;86.73
63819;BME280;49970;54.976;73.248;2024-02-28T05:30:40;101931.13;;;-3.70;86.71
63819;BME280;49970;54.976;73.248;2024-02-28T05:33:06;101929.41;;;-3.70;86.29
63819;BME280;49970;54.976;73.248;2024-02-28T05:35:33;101922.47;;;-3.71;86.11
63819;BME280;49970;54.976;73.248;2024-02-28T05:37:59;101932.84;;;-3.68;86.39
63819;BME280;49970;54.976;73.248;2024-02-28T05:40:25;101928.53;;;-3.69;85.69
63819;BME280;49970;54.976;73.248;2024-02-28T05:42:52;101923.41;;;-3.67;85.91
63819;BME280;49970;54.976;73.248;2024-02-28T05:45:19;101919.97;;;-3.65;85.84
63819;BME280;49970;54.976;73.248;2024-02-28T05:47:45;101922.53;;;-3.65;85.83
63819;BME280;49970;54.976;73.248;2024-02-28T05:50:12;101925.19;;;-3.62;85.76
63819;BME280;49970;54.976;73.248;2024-02-28T05:52:42;101924.38;;;-3.59;86.00
63819;BME280;49970;54.976;73.248;2024-02-28T05:55:08;101926.06;;;-3.60;85.81
63819;BME280;49970;54.976;73.248;2024-02-28T05:57:35;101925.25;;;-3.56;85.79
63819;BME280;49970;54.976;73.248;2024-02-28T06:00:02;101930.44;;;-3.56;85.65
63819;BME280;49970;54.976;73.248;2024-02-28T06:02:37;101921.78;;;-3.58;84.99
63819;BME280;49970;54.976;73.248;2024-02-28T06:05:04;101933.03;;;-3.56;84.83
63819;BME280;49970;54.976;73.248;2024-02-28T06:07:30;101925.25;;;-3.56;85.65
63819;BME280;49970;54.976;73.248;2024-02-28T06:09:57;101923.53;;;-3.57;85.26
63819;BME280;49970;54.976;73.248;2024-02-28T06:12:23;101921.78;;;-3.58;84.76
63819;BME280;49970;54.976;73.248;2024-02-28T06:14:50;101914.06;;;-3.52;84.69
63819;BME280;49970;54.976;73.248;2024-02-28T06:17:16;101914.13;;;-3.48;84.81
63819;BME280;49970;54.976;73.248;2024-02-28T06:19:42;101913.22;;;-3.52;84.60
63819;BME280;49970;54.976;73.248;2024-02-28T06:22:09;101914.88;;;-3.56;84.86
63819;BME280;49970;54.976;73.248;2024-02-28T06:24:35;101914.94;;;-3.53;84.86
63819;BME280;49970;54.976;73.248;2024-02-28T06:27:02;101909.72;;;-3.56;84.76
63819;BME280;49970;54.976;73.248;2024-02-28T06:29:29;101911.53;;;-3.48;84.44
63819;BME280;49970;54.976;73.248;2024-02-28T06:31:55;101908.94;;;-3.50;84.33
63819;BME280;49970;54.976;73.248;2024-02-28T06:34:21;101917.56;;;-3.51;84.66
63819;BME280;49970;54.976;73.248;2024-02-28T06:36:48;101902.84;;;-3.52;84.51
63819;BME280;49970;54.976;73.248;2024-02-28T06:39:15;101907.16;;;-3.53;84.20
63819;BME280;49970;54.976;73.248;2024-02-28T06:41:42;101909.78;;;-3.51;84.13
63819;BME280;49970;54.976;73.248;2024-02-28T06:44:08;101907.16;;;-3.54;84.31
63819;BME280;49970;54.976;73.248;2024-02-28T06:46:34;101897.63;;;-3.57;83.67
63819;BME280;49970;54.976;73.248;2024-02-28T06:49:01;101907.13;;;-3.56;83.83
63819;BME280;49970;54.976;73.248;2024-02-28T06:51:27;101899.34;;;-3.57;84.08
63819;BME280;49970;54.976;73.248;2024-02-28T06:53:54;101900.19;;;-3.58;83.36
63819;BME280;49970;54.976;73.248;2024-02-28T06:56:20;101889.78;;;-3.61;83.26
63819;BME280;49970;54.976;73.248;2024-02-28T06:58:46;101887.25;;;-3.58;83.29
63819;BME280;49970;54.976;73.248;2024-02-28T07:01:13;101894.16;;;-3.57;83.52
63819;BME280;49970;54.976;73.248;2024-02-28T07:03:57;101893.31;;;-3.56;83.04
63819;BME280;49970;54.976;73.248;2024-02-28T07:06:23;101890.75;;;-3.55;83.67
63819;BME280;49970;54.976;73.248;2024-02-28T07:08:50;101891.63;;;-3.53;83.03
63819;BME280;49970;54.976;73.248;2024-02-28T07:11:17;101884.72;;;-3.55;82.63
63819;BME280;49970;54.976;73.248;2024-02-28T07:13:43;101870.88;;;-3.56;82.80
63819;BME280;49970;54.976;73.248;2024-02-28T07:16:09;101876.94;;;-3.54;83.07
63819;BME280;49970;54.976;73.248;2024-02-28T07:18:36;101871.72;;;-3.57;83.08
63819;BME280;49970;54.976;73.248;2024-02-28T07:21:02;101866.53;;;-3.57;82.92
63819;BME280;49970;54.976;73.248;2024-02-28T07:23:29;101864.00;;;-3.55;82.77
63819;BME280;49970;54.976;73.248;2024-02-28T07:25:56;101867.41;;;-3.58;82.38
63819;BME280;49970;54.976;73.248;2024-02-28T07:28:23;101860.53;;;-3.54;83.03
63819;BME280;49970;54.976;73.248;2024-02-28T07:30:49;101864.00;;;-3.54;82.72
63819;BME280;49970;54.976;73.248;2024-02-28T07:33:16;101863.13;;;-3.54;82.45
63819;BME280;49970;54.976;73.248;2024-02-28T07:35:52;101868.31;;;-3.53;82.30
63819;BME280;49970;54.976;73.248;2024-02-28T07:38:18;101863.09;;;-3.56;82.47
63819;BME280;49970;54.976;73.248;2024-02-28T07:40:49;101872.63;;;-3.53;81.78
63819;BME280;49970;54.976;73.248;2024-02-28T07:43:15;101860.53;;;-3.53;81.76
63819;BME280;49970;54.976;73.248;2024-02-28T07:45:43;101862.22;;;-3.56;81.72
63819;BME280;49970;54.976;73.248;2024-02-28T07:48:09;101858.75;;;-3.58;82.01
63819;BME280;49970;54.976;73.248;2024-02-28T07:50:36;101860.50;;;-3.56;81.43
63819;BME280;49970;54.976;73.248;2024-02-28T07:53:04;101852.69;;;-3.62;81.70
63819;BME280;49970;54.976;73.248;2024-02-28T07:55:30;101863.13;;;-3.53;81.41
63819;BME280;49970;54.976;73.248;2024-02-28T07:57:57;101861.41;;;-3.52;81.93
63819;BME280;49970;54.976;73.248;2024-02-28T08:00:23;101852.78;;;-3.54;81.65
63819;BME280;49970;54.976;73.248;2024-02-28T08:02:51;101852.78;;;-3.54;80.93
63819;BME280;49970;54.976;73.248;2024-02-28T08:05:17;101851.00;;;-3.57;80.66
63819;BME280;49970;54.976;73.248;2024-02-28T08:07:44;101845.81;;;-3.57;81.12
63819;BME280;49970;54.976;73.248;2024-02-28T08:10:11;101840.66;;;-3.57;80.79
63819;BME280;49970;54.976;73.248;2024-02-28T08:12:37;101843.28;;;-3.55;81.10
63819;BME280;49970;54.976;73.248;2024-02-28T08:15:04;101848.47;;;-3.52;80.95
63819;BME280;49970;54.976;73.248;2024-02-28T08:17:31;101844.16;;;-3.53;80.45
63819;BME280;49970;54.976;73.248;2024-02-28T08:19:57;101850.19;;;-3.53;80.49
63819;BME280;49970;54.976;73.248;2024-02-28T08:22:24;101838.06;;;-3.57;80.47
63819;BME280;49970;54.976;73.248;2024-02-28T08:24:51;101843.31;;;-3.49;80.47
63819;BME280;49970;54.976;73.248;2024-02-28T08:27:18;101844.22;;;-3.45;80.18
63819;BME280;49970;54.976;73.248;2024-02-28T08:29:44;101839.06;;;-3.45;80.35
63819;BME280;49970;54.976;73.248;2024-02-28T08:32:32;101842.47;;;-3.49;79.51
63819;BME280;49970;54.976;73.248;2024-02-28T08:35:34;101835.56;;;-3.51;79.75
63819;BME280;49970;54.976;73.248;2024-02-28T08:39:10;101844.09;;;-3.56;79.42
63819;BME280;49970;54.976;73.248;2024-02-28T08:42:41;101837.13;;;-3.62;79.37
63819;BME280;49970;54.976;73.248;2024-02-28T08:46:37;101843.13;;;-3.67;79.29
63819;BME280;49970;54.976;73.248;2024-02-28T08:50:33;101838.78;;;-3.70;79.51
63819;BME280;49970;54.976;73.248;2024-02-28T08:54:29;101843.03;;;-3.73;78.93
63819;BME280;49970;54.976;73.248;2024-02-28T08:58:05;101836.09;;;-3.78;79.39
63819;BME280;49970;54.976;73.248;2024-02-28T09:05:07;101829.13;;;-3.83;78.91
63819;BME280;49970;54.976;73.248;2024-02-28T09:08:37;101830.84;;;-3.84;79.58
63819;BME280;49970;54.976;73.248;2024-02-28T09:12:08;101813.47;;;-3.92;78.70
63819;BME280;49970;54.976;73.248;2024-02-28T09:15:40;101829.88;;;-3.92;79.20
63819;BME280;49970;54.976;73.248;2024-02-28T09:19:10;101824.66;;;-3.93;79.30
63819;BME280;49970;54.976;73.248;2024-02-28T09:21:57;101822.97;;;-3.93;78.60
63819;BME280;49970;54.976;73.248;2024-02-28T09:24:24;101822.97;;;-3.90;79.24
63819;BME280;49970;54.976;73.248;2024-02-28T09:26:51;101830.84;;;-3.84;78.86
63819;BME280;49970;54.976;73.248;2024-02-28T09:29:17;101826.53;;;-3.83;79.08
63819;BME280;49970;54.976;73.248;2024-02-28T09:31:43;101832.56;;;-3.83;78.69
63819;BME280;49970;54.976;73.248;2024-02-28T09:34:10;101830.00;;;-3.83;78.30
63819;BME280;49970;54.976;73.248;2024-02-28T09:36:41;101828.31;;;-3.79;78.68
63819;BME280;49970;54.976;73.248;2024-02-28T09:39:08;101832.63;;;-3.77;78.17
63819;BME280;49970;54.976;73.248;2024-02-28T09:41:35;101827.47;;;-3.77;78.30
63819;BME280;49970;54.976;73.248;2024-02-28T09:44:02;101820.53;;;-3.79;78.11
63819;BME280;49970;54.976;73.248;2024-02-28T09:46:29;101820.50;;;-3.82;77.85
63819;BME280;49970;54.976;73.248;2024-02-28T09:48:56;101806.59;;;-3.89;77.24
63819;BME280;49970;54.976;73.248;2024-02-28T09:51:23;101810.97;;;-3.85;77.05
63819;BME280;49970;54.976;73.248;2024-02-28T09:53:51;101809.22;;;-3.87;77.13
63819;BME280;49970;54.976;73.248;2024-02-28T09:56:17;101810.13;;;-3.82;77.16
63819;BME280;49970;54.976;73.248;2024-02-28T09:58:44;101807.50;;;-3.87;77.11
63819;BME280;49970;54.976;73.248;2024-02-28T10:01:14;101801.50;;;-3.84;77.26
63819;BME280;49970;54.976;73.248;2024-02-28T10:03:44;101792.78;;;-3.91;77.18
63819;BME280;49970;54.976;73.248;2024-02-28T10:06:11;101784.06;;;-4.01;76.98
63819;BME280;49970;54.976;73.248;2024-02-28T10:08:39;101810.03;;;-3.91;76.74
63819;BME280;49970;54.976;73.248;2024-02-28T10:11:06;101804.00;;;-3.90;76.67
63819;BME280;49970;54.976;73.248;2024-02-28T10:13:32;101807.44;;;-3.91;76.95
63819;BME280;49970;54.976;73.248;2024-02-28T10:15:59;101797.91;;;-3.94;76.15
63819;BME280;49970;54.976;73.248;2024-02-28T10:18:26;101808.25;;;-3.95;76.27
63819;BME280;49970;54.976;73.248;2024-02-28T10:20:52;101809.06;;;-3.98;76.44
63819;BME280;49970;54.976;73.248;2024-02-28T10:23:19;101803.91;;;-3.99;76.44
63819;BME280;49970;54.976;73.248;2024-02-28T10:25:46;101803.91;;;-3.99;75.95
63819;BME280;49970;54.976;73.248;2024-02-28T10:28:14;101803.88;;;-4.01;76.74
63819;BME280;49970;54.976;73.248;2024-02-28T10:30:41;101800.41;;;-4.02;75.96
63819;BME280;49970;54.976;73.248;2024-02-28T10:33:13;101796.09;;;-4.03;76.08
63819;BME280;49970;54.976;73.248;2024-02-28T10:35:43;101801.25;;;-4.03;75.77
63819;BME280;49970;54.976;73.248;2024-02-28T10:38:11;101791.72;;;-4.07;75.79
63819;BME280;49970;54.976;73.248;2024-02-28T10:40:42;101789.94;;;-4.14;75.59
63819;BME280;49970;54.976;73.248;2024-02-28T10:43:09;101795.09;;;-4.14;75.74
63819;BME280;49970;54.976;73.248;2024-02-28T10:45:58;101788.16;;;-4.18;75.84
63819;BME280;49970;54.976;73.248;2024-02-28T10:49:29;101800.97;;;-4.24;75.32
63819;BME280;49970;54.976;73.248;2024-02-28T10:53:03;101799.22;;;-4.28;75.05
63819;BME280;49970;54.976;73.248;2024-02-28T10:56:32;101799.06;;;-4.39;75.57
63819;BME280;49970;54.976;73.248;2024-02-28T11:00:03;101799.75;;;-4.51;75.51
63819;BME280;49970;54.976;73.248;2024-02-28T11:03:33;101796.13;;;-4.63;75.45
63819;BME280;49970;54.976;73.248;2024-02-28T11:07:07;101796.75;;;-4.77;75.52
63819;BME280;49970;54.976;73.248;2024-02-28T11:10:41;101798.41;;;-4.82;75.50
63819;BME280;49970;54.976;73.248;2024-02-28T11:13:22;101797.47;;;-4.87;75.23
63819;BME280;49970;54.976;73.248;2024-02-28T11:15:48;101794.03;;;-4.87;75.68
63819;BME280;49970;54.976;73.248;2024-02-28T11:18:14;101794.88;;;-4.88;75.64
63819;BME280;49970;54.976;73.248;2024-02-28T11:20:41;101763.63;;;-5.02;75.34
63819;BME280;49970;54.976;73.248;2024-02-28T11:23:09;101793.22;;;-4.85;75.70
63819;BME280;49970;54.976;73.248;2024-02-28T11:25:36;101781.09;;;-4.87;75.74
63819;BME280;49970;54.976;73.248;2024-02-28T11:28:02;101788.06;;;-4.83;75.75
63819;BME280;49970;54.976;73.248;2024-02-28T11:30:29;101784.63;;;-4.82;75.52
63819;BME280;49970;54.976;73.248;2024-02-28T11:32:57;101763.81;;;-4.90;75.15
63819;BME280;49970;54.976;73.248;2024-02-28T11:35:28;101784.56;;;-4.85;75.74
63819;BME280;49970;54.976;73.248;2024-02-28T11:37:55;101777.66;;;-4.88;74.97
63819;BME280;49970;54.976;73.248;2024-02-28T11:40:24;101781.91;;;-4.91;74.77
63819;BME280;49970;54.976;73.248;2024-02-28T11:42:52;101783.56;;;-4.93;75.07
63819;BME280;49970;54.976;73.248;2024-02-28T11:45:19;101784.44;;;-4.94;75.02
63819;BME280;49970;54.976;73.248;2024-02-28T11:47:45;101778.41;;;-4.93;74.93
63819;BME280;49970;54.976;73.248;2024-02-28T11:50:12;101784.44;;;-4.94;74.88
63819;BME280;49970;54.976;73.248;2024-02-28T11:52:40;101780.09;;;-4.97;74.89
63819;BME280;49970;54.976;73.248;2024-02-28T11:55:07;101777.53;;;-4.97;75.57
63819;BME280;49970;54.976;73.248;2024-02-28T11:57:53;101774.03;;;-4.99;74.82
63819;BME280;49970;54.976;73.248;2024-02-28T12:01:37;101760.19;;;-5.03;75.26
63819;BME280;49970;54.976;73.248;2024-02-28T12:05:07;101764.41;;;-5.08;75.13
63819;BME280;49970;54.976;73.248;2024-02-28T12:08:39;101760.91;;;-5.13;75.18
63819;BME280;49970;54.976;73.248;2024-02-28T12:12:11;101766.84;;;-5.17;74.73
63819;BME280;49970;54.976;73.248;2024-02-28T12:15:02;101769.38;;;-5.20;75.37
63819;BME280;49970;54.976;73.248;2024-02-28T12:17:35;101746.78;;;-5.32;75.10
63819;BME280;49970;54.976;73.248;2024-02-28T12:20:04;101771.88;;;-5.24;75.75
63819;BME280;49970;54.976;73.248;2024-02-28T12:22:34;101769.25;;;-5.28;75.27
63819;BME280;49970;54.976;73.248;2024-02-28T12:25:03;101760.56;;;-5.31;75.45
63819;BME280;49970;54.976;73.248;2024-02-28T12:27:33;101757.03;;;-5.36;75.13
63819;BME280;49970;54.976;73.248;2024-02-28T12:30:05;101764.72;;;-5.41;75.68
63819;BME280;49970;54.976;73.248;2024-02-28T12:32:36;101762.06;;;-5.45;75.00
63819;BME280;49970;54.976;73.248;2024-02-28T12:35:09;101767.22;;;-5.47;74.83
63819;BME280;49970;54.976;73.248;2024-02-28T12:37:41;101763.69;;;-5.51;75.00
63819;BME280;49970;54.976;73.248;2024-02-28T12:40:11;101766.22;;;-5.54;75.06
63819;BME280;49970;54.976;73.248;2024-02-28T12:42:44;101764.44;;;-5.56;74.94
63819;BME280;49970;54.976;73.248;2024-02-28T12:45:14;101763.50;;;-5.61;74.76
63819;BME280;49970;54.976;73.248;2024-02-28T12:47:46;101772.00;;;-5.65;74.89
63819;BME280;49970;54.976;73.248;2024-02-28T12:50:27;101776.31;;;-5.64;75.20
63819;BME280;49970;54.976;73.248;2024-02-28T12:53:00;101773.72;;;-5.66;75.18
63819;BME280;49970;54.976;73.248;2024-02-28T12:55:32;101783.97;;;-5.70;75.00
63819;BME280;49970;54.976;73.248;2024-02-28T12:58:02;101778.78;;;-5.72;75.22
63819;BME280;49970;54.976;73.248;2024-02-28T13:00:34;101781.28;;;-5.77;74.84
63819;BME280;49970;54.976;73.248;2024-02-28T13:03:05;101777.78;;;-5.79;75.41
63819;BME280;49970;54.976;73.248;2024-02-28T13:05:36;101787.22;;;-5.81;74.74
63819;BME280;49970;54.976;73.248;2024-02-28T13:08:07;101788.81;;;-5.86;75.63
63819;BME280;49970;54.976;73.248;2024-02-28T13:10:36;101785.38;;;-5.86;75.07
63819;BME280;49970;54.976;73.248;2024-02-28T13:13:19;101790.50;;;-5.89;75.26
63819;BME280;49970;54.976;73.248;2024-02-28T13:15:52;101783.59;;;-5.92;75.24
63819;BME280;49970;54.976;73.248;2024-02-28T13:18:23;101790.41;;;-5.95;75.43
63819;BME280;49970;54.976;73.248;2024-02-28T13:20:53;101782.56;;;-6.00;74.92
63819;BME280;49970;54.976;73.248;2024-02-28T13:23:36;101785.06;;;-6.05;75.36
63819;BME280;49970;54.976;73.248;2024-02-28T13:26:05;101780.66;;;-6.10;74.54
63819;BME280;49970;54.976;73.248;2024-02-28T13:28:37;101781.53;;;-6.10;74.80
63819;BME280;49970;54.976;73.248;2024-02-28T13:31:08;101793.47;;;-6.13;75.08
63819;BME280;49970;54.976;73.248;2024-02-28T13:33:38;101790.81;;;-6.16;75.03
63819;BME280;49970;54.976;73.248;2024-02-28T13:36:25;101789.78;;;-6.26;75.38
63819;BME280;49970;54.976;73.248;2024-02-28T13:38:57;101792.34;;;-6.26;75.04
63819;BME280;49970;54.976;73.248;2024-02-28T13:41:28;101792.16;;;-6.35;75.46
63819;BME280;49970;54.976;73.248;2024-02-28T13:43:59;101778.31;;;-6.39;75.39
63819;BME280;49970;54.976;73.248;2024-02-28T13:46:29;101779.97;;;-6.41;75.22
63819;BME280;49970;54.976;73.248;2024-02-28T13:49:00;101785.13;;;-6.42;75.44
63819;BME280;49970;54.976;73.248;2024-02-28T13:51:34;101781.59;;;-6.46;75.42
63819;BME280;49970;54.976;73.248;2024-02-28T13:54:05;101774.72;;;-6.47;75.54
63819;BME280;49970;54.976;73.248;2024-02-28T13:56:36;101779.78;;;-6.52;75.03
63819;BME280;49970;54.976;73.248;2024-02-28T13:59:06;101774.53;;;-6.55;75.36
63819;BME280;49970;54.976;73.248;2024-02-28T14:01:38;101775.38;;;-6.56;74.96
63819;BME280;49970;54.976;73.248;2024-02-28T14:04:09;101777.09;;;-6.56;75.82
63819;BME280;49970;54.976;73.248;2024-02-28T14:06:39;101778.66;;;-6.61;75.29
63819;BME280;49970;54.976;73.248;2024-02-28T14:09:14;101785.53;;;-6.62;75.28
63819;BME280;49970;54.976;73.248;2024-02-28T14:11:46;101783.72;;;-6.66;75.40
63819;BME280;49970;54.976;73.248;2024-02-28T14:14:17;101787.91;;;-6.71;75.40
63819;BME280;49970;54.976;73.248;2024-02-28T14:16:49;101801.56;;;-6.75;75.25
63819;BME280;49970;54.976;73.248;2024-02-28T14:19:23;101798.03;;;-6.79;75.29
63819;BME280;49970;54.976;73.248;2024-02-28T14:21:54;101799.72;;;-6.81;75.57
63819;BME280;49970;54.976;73.248;2024-02-28T14:24:22;101796.19;;;-6.84;75.67
63819;BME280;49970;54.976;73.248;2024-02-28T14:26:56;101796.09;;;-6.87;75.61
63819;BME280;49970;54.976;73.248;2024-02-28T14:29:29;101791.72;;;-6.91;75.70
63819;BME280;49970;54.976;73.248;2024-02-28T14:32:01;101789.13;;;-6.91;75.73
63819;BME280;49970;54.976;73.248;2024-02-28T14:34:32;101798.56;;;-6.92;75.54
63819;BME280;49970;54.976;73.248;2024-02-28T14:37:03;101783.84;;;-6.97;76.02
63819;BME280;49970;54.976;73.248;2024-02-28T14:39:34;101784.66;;;-6.98;75.79